Time;durP1;ratioP1;P1;durP2;ratioP2;P2;SDS_P1;SDS_P2;PMS_P1;PMS_P2;Temp;Humidity;BMP_temperature;BMP_pressure;BME280_temperature;BME280_humidity;BME280_pressure;Samples;Min_cycle;Max_cycle;Signal;HPM_P1;HPM_P2
2022/03/04 00:01:54;;;;;;;29.17;13.77;;;-0.30;99.90;;;;;;4985633;28;20109;-72
2022/03/04 00:04:20;;;;;;;30.85;13.88;;;-0.30;99.90;;;;;;4992286;28;20134;-72
2022/03/04 00:06:46;;;;;;;30.50;14.40;;;-0.30;99.90;;;;;;4985955;28;20038;-72
2022/03/04 00:09:12;;;;;;;26.73;12.73;;;-0.30;99.90;;;;;;4983443;28;20049;-72
2022/03/04 00:11:38;;;;;;;27.90;14.23;;;-0.40;99.90;;;;;;4991813;28;20083;-72
2022/03/04 00:14:03;;;;;;;29.95;13.75;;;-0.40;99.90;;;;;;4987421;28;20462;-72
2022/03/04 00:16:29;;;;;;;29.05;14.38;;;-0.40;99.90;;;;;;4989907;28;20038;-71
2022/03/04 00:19:08;;;;;;;30.70;13.60;;;-0.40;99.90;;;;;;4988209;28;20049;-72
2022/03/04 00:21:38;;;;;;;25.02;12.30;;;-0.40;99.90;;;;;;4991483;28;20045;-72
2022/03/04 00:24:05;;;;;;;25.83;12.98;;;-0.40;99.90;;;;;;4976617;28;20841;-72
2022/03/04 00:26:31;;;;;;;25.77;12.52;;;-0.40;99.90;;;;;;4991578;28;20534;-72
2022/03/04 00:28:57;;;;;;;29.00;13.75;;;-0.50;99.90;;;;;;4986719;28;20053;-71
2022/03/04 00:31:24;;;;;;;29.20;13.55;;;-0.50;99.90;;;;;;4989751;28;20046;-71
2022/03/04 00:33:50;;;;;;;24.52;12.27;;;-0.50;99.90;;;;;;4989522;28;20026;-71
2022/03/04 00:36:16;;;;;;;26.90;12.48;;;-0.60;99.90;;;;;;4983024;28;20026;-73
2022/03/04 00:38:42;;;;;;;26.70;12.68;;;-0.60;99.90;;;;;;4988477;28;20434;-71
2022/03/04 00:41:07;;;;;;;24.90;12.57;;;-0.60;99.90;;;;;;4990736;28;20041;-71
2022/03/04 00:43:33;;;;;;;23.10;11.85;;;-0.60;99.90;;;;;;4990756;28;20045;-72
2022/03/04 00:45:59;;;;;;;27.17;12.05;;;-0.70;99.90;;;;;;4975273;28;20110;-72
2022/03/04 00:48:25;;;;;;;29.42;12.93;;;-0.70;99.90;;;;;;4987714;28;20192;-71
2022/03/04 00:50:51;;;;;;;31.50;14.27;;;-0.80;99.90;;;;;;4999836;28;20026;-71
2022/03/04 00:53:17;;;;;;;28.40;12.52;;;-0.80;99.90;;;;;;4969898;28;20112;-72
2022/03/04 00:55:43;;;;;;;28.65;13.23;;;-0.80;99.90;;;;;;4989700;28;20640;-71
2022/03/04 00:58:09;;;;;;;26.15;12.50;;;-0.80;99.90;;;;;;4985359;28;20030;-72
2022/03/04 01:00:36;;;;;;;24.95;12.20;;;-0.90;99.90;;;;;;4992202;28;20030;-72
2022/03/04 01:03:03;;;;;;;29.33;12.60;;;-0.90;99.90;;;;;;4989045;28;20391;-72
2022/03/04 01:05:29;;;;;;;25.60;12.48;;;-0.90;99.90;;;;;;4990783;28;20026;-71
2022/03/04 01:07:54;;;;;;;25.92;13.15;;;-0.90;99.90;;;;;;4988519;28;20030;-72
2022/03/04 01:10:20;;;;;;;24.48;11.50;;;-0.90;99.90;;;;;;4987381;28;20077;-71
2022/03/04 01:12:46;;;;;;;31.20;13.70;;;-0.90;99.90;;;;;;4990012;28;20118;-71
2022/03/04 01:15:12;;;;;;;25.15;11.93;;;-1.00;99.90;;;;;;4975617;28;20160;-72
2022/03/04 01:17:38;;;;;;;22.48;11.57;;;-1.00;99.90;;;;;;4970545;28;20023;-71
2022/03/04 01:20:05;;;;;;;22.55;11.95;;;-1.10;99.90;;;;;;4988549;28;20022;-72
2022/03/04 01:22:31;;;;;;;19.40;10.52;;;-1.10;99.90;;;;;;4987461;28;20439;-71
2022/03/04 01:24:57;;;;;;;26.00;11.30;;;-1.10;99.90;;;;;;5000008;28;20060;-72
2022/03/04 01:27:23;;;;;;;24.45;11.40;;;-1.10;99.90;;;;;;4990254;28;20109;-72
2022/03/04 01:29:49;;;;;;;30.70;12.23;;;-1.10;99.90;;;;;;4990915;28;20038;-72
2022/03/04 01:32:14;;;;;;;24.73;11.93;;;-1.20;99.90;;;;;;4989469;28;20030;-72
2022/03/04 01:34:40;;;;;;;24.60;11.77;;;-1.20;99.90;;;;;;4988228;28;20447;-72
2022/03/04 01:37:08;;;;;;;29.52;12.77;;;-1.30;99.90;;;;;;4989628;28;20026;-72
2022/03/04 01:39:34;;;;;;;27.33;12.38;;;-1.20;99.90;;;;;;4986674;28;20038;-72
2022/03/04 01:42:00;;;;;;;27.40;13.27;;;-1.20;99.90;;;;;;4988076;28;20121;-71
2022/03/04 01:44:25;;;;;;;26.92;12.73;;;-1.20;99.90;;;;;;4987521;28;20022;-72
2022/03/04 01:46:51;;;;;;;20.85;10.77;;;-1.30;99.90;;;;;;4987541;28;20034;-71
2022/03/04 01:49:17;;;;;;;26.02;12.52;;;-1.30;99.90;;;;;;4979438;28;20031;-72
2022/03/04 01:51:43;;;;;;;27.55;12.57;;;-1.30;99.90;;;;;;4987642;28;20042;-72
2022/03/04 01:54:09;;;;;;;26.50;12.60;;;-1.40;99.90;;;;;;4985719;28;20049;-71
2022/03/04 01:56:34;;;;;;;25.77;12.52;;;-1.30;99.90;;;;;;4989008;28;20476;-72
2022/03/04 01:59:00;;;;;;;25.48;11.13;;;-1.40;99.90;;;;;;4985476;28;20487;-72
2022/03/04 02:01:26;;;;;;;26.05;12.07;;;-1.50;99.90;;;;;;4987312;28;20026;-72
2022/03/04 02:03:52;;;;;;;23.63;11.50;;;-1.40;99.90;;;;;;4983189;28;20128;-72
2022/03/04 02:06:17;;;;;;;22.55;11.23;;;-1.50;99.90;;;;;;4991481;28;20408;-72
2022/03/04 02:08:43;;;;;;;23.23;11.43;;;-1.50;99.90;;;;;;4990515;28;20110;-72
2022/03/04 02:11:09;;;;;;;28.02;11.82;;;-1.50;99.90;;;;;;4987782;28;21311;-73
2022/03/04 02:13:38;;;;;;;25.23;12.48;;;-1.60;99.90;;;;;;4967680;28;20035;-73
2022/03/04 02:16:20;;;;;;;29.20;11.65;;;-1.60;99.90;;;;;;4985445;28;20375;-73
2022/03/04 02:18:46;;;;;;;21.75;11.15;;;-1.50;99.90;;;;;;4984807;28;20715;-72
2022/03/04 02:21:14;;;;;;;20.27;11.13;;;-1.50;99.90;;;;;;4991466;28;20030;-72
2022/03/04 02:23:40;;;;;;;25.25;12.13;;;-1.50;99.90;;;;;;5003176;28;20395;-70
2022/03/04 02:26:05;;;;;;;23.98;11.48;;;-1.50;99.90;;;;;;4991393;28;20514;-71
2022/03/04 02:28:31;;;;;;;25.60;12.15;;;-1.60;99.90;;;;;;4993874;28;20033;-71
2022/03/04 02:30:57;;;;;;;25.35;11.40;;;-1.60;99.90;;;;;;4984364;28;20080;-72
2022/03/04 02:33:23;;;;;;;25.60;11.90;;;-1.70;99.90;;;;;;4987594;28;20026;-72
2022/03/04 02:35:49;;;;;;;26.15;11.93;;;-1.70;99.90;;;;;;4983897;28;20034;-72
2022/03/04 02:38:14;;;;;;;25.45;11.85;;;-1.70;99.90;;;;;;4989051;28;20031;-71
2022/03/04 02:40:40;;;;;;;22.17;11.63;;;-1.70;99.90;;;;;;4984405;28;20126;-72
2022/03/04 02:43:06;;;;;;;27.88;12.50;;;-1.80;99.90;;;;;;5000230;28;20026;-72
2022/03/04 02:45:32;;;;;;;27.90;13.32;;;-1.80;99.90;;;;;;4981390;28;20036;-72
2022/03/04 02:47:58;;;;;;;25.10;12.77;;;-1.80;99.90;;;;;;4982115;28;20030;-72
2022/03/04 02:50:24;;;;;;;29.52;14.20;;;-1.90;99.90;;;;;;4984166;28;20105;-72
2022/03/04 02:52:50;;;;;;;30.55;13.98;;;-1.80;99.90;;;;;;4985209;28;20050;-72
2022/03/04 02:55:15;;;;;;;28.58;13.68;;;-1.80;99.90;;;;;;4987807;28;20113;-72
2022/03/04 02:57:44;;;;;;;30.25;14.35;;;-1.80;99.90;;;;;;4972328;28;20109;-72
2022/03/04 03:00:11;;;;;;;26.55;13.57;;;-1.80;99.90;;;;;;4985404;28;20030;-72
2022/03/04 03:02:37;;;;;;;28.02;14.20;;;-1.80;99.90;;;;;;4989158;28;20491;-72
2022/03/04 03:05:02;;;;;;;33.22;14.82;;;-1.80;99.90;;;;;;4994297;28;20093;-72
2022/03/04 03:07:29;;;;;;;27.83;13.75;;;-1.90;99.90;;;;;;4982595;28;20077;-72
2022/03/04 03:09:55;;;;;;;28.33;14.10;;;-1.80;99.90;;;;;;4979269;28;20049;-72
2022/03/04 03:12:21;;;;;;;33.28;14.27;;;-1.90;99.90;;;;;;4984385;28;20026;-72
2022/03/04 03:14:47;;;;;;;30.42;13.98;;;-1.90;99.90;;;;;;4991051;28;20685;-72
2022/03/04 03:17:12;;;;;;;29.40;14.45;;;-1.90;99.90;;;;;;4968748;28;20034;-72
2022/03/04 03:19:38;;;;;;;29.15;14.00;;;-1.90;99.90;;;;;;4969045;28;20026;-72
2022/03/04 03:22:04;;;;;;;27.65;14.10;;;-1.90;99.90;;;;;;4969714;28;20022;-74
2022/03/04 03:24:30;;;;;;;26.60;14.00;;;-1.90;99.90;;;;;;4973587;28;20035;-75
2022/03/04 03:26:56;;;;;;;29.08;12.90;;;-1.90;99.90;;;;;;4984906;28;20037;-74
2022/03/04 03:29:22;;;;;;;24.88;12.30;;;-2.00;99.90;;;;;;4971139;28;20091;-74
2022/03/04 03:31:47;;;;;;;27.35;13.63;;;-1.90;99.90;;;;;;4966703;28;20056;-73
2022/03/04 03:34:14;;;;;;;28.77;13.15;;;-1.90;99.90;;;;;;4988803;28;20035;-73
2022/03/04 03:36:40;;;;;;;26.40;13.20;;;-2.00;99.90;;;;;;4986723;28;20458;-72
2022/03/04 03:39:08;;;;;;;30.65;12.13;;;-2.10;99.90;;;;;;4987418;28;20041;-74
2022/03/04 03:41:34;;;;;;;24.73;12.70;;;-2.20;99.90;;;;;;4999600;28;20042;-74
2022/03/04 03:44:00;;;;;;;32.67;12.20;;;-2.20;99.90;;;;;;4987342;28;20033;-74
2022/03/04 03:46:25;;;;;;;29.63;13.18;;;-2.20;99.90;;;;;;4967516;28;20418;-73
2022/03/04 03:48:51;;;;;;;30.55;14.50;;;-2.30;99.90;;;;;;5007852;28;20534;-74
2022/03/04 03:51:17;;;;;;;32.40;13.95;;;-2.40;99.90;;;;;;4993721;28;20049;-74
2022/03/04 03:53:43;;;;;;;27.17;13.95;;;-2.30;99.90;;;;;;4978186;28;20375;-73
2022/03/04 03:56:09;;;;;;;27.52;13.48;;;-2.30;99.90;;;;;;4976408;28;20085;-74
2022/03/04 03:58:34;;;;;;;27.60;12.65;;;-2.40;99.90;;;;;;4980625;28;20062;-73
2022/03/04 04:01:00;;;;;;;33.78;14.30;;;-2.40;99.90;;;;;;4979309;28;20037;-73
2022/03/04 04:03:26;;;;;;;30.17;13.73;;;-2.40;99.90;;;;;;4987844;28;20026;-73
2022/03/04 04:05:51;;;;;;;29.10;13.10;;;-2.30;99.90;;;;;;4992792;28;20105;-76
2022/03/04 04:08:17;;;;;;;31.48;15.73;;;-2.30;99.90;;;;;;4992763;28;20065;-74
2022/03/04 04:10:43;;;;;;;28.90;13.82;;;-2.30;99.90;;;;;;4990765;28;20090;-75
2022/03/04 04:13:08;;;;;;;29.40;15.00;;;-2.40;99.90;;;;;;4976509;28;20161;-74
2022/03/04 04:15:34;;;;;;;35.83;14.85;;;-2.40;99.90;;;;;;4986417;28;20908;-74
2022/03/04 04:18:00;;;;;;;28.75;13.98;;;-2.40;99.90;;;;;;4994883;28;20022;-74
2022/03/04 04:20:25;;;;;;;29.67;14.52;;;-2.50;99.90;;;;;;4988582;28;20027;-75
2022/03/04 04:22:51;;;;;;;30.60;13.93;;;-2.50;99.90;;;;;;4994732;28;20503;-74
2022/03/04 04:25:17;;;;;;;29.52;15.27;;;-2.50;99.90;;;;;;4989354;28;20060;-73
2022/03/04 04:27:42;;;;;;;34.42;15.27;;;-2.50;99.90;;;;;;4989529;28;20046;-75
2022/03/04 04:30:08;;;;;;;30.65;14.65;;;-2.60;99.90;;;;;;4991976;28;20080;-75
2022/03/04 04:32:34;;;;;;;30.05;14.70;;;-2.60;99.90;;;;;;4998942;28;20050;-75
2022/03/04 04:35:00;;;;;;;30.23;15.68;;;-2.60;99.90;;;;;;4983146;28;20046;-75
2022/03/04 04:37:26;;;;;;;30.02;14.52;;;-2.60;99.90;;;;;;5008267;28;20030;-75
2022/03/04 04:39:51;;;;;;;35.33;14.52;;;-2.60;99.90;;;;;;4999903;28;20022;-75
2022/03/04 04:42:17;;;;;;;35.72;15.38;;;-2.60;99.90;;;;;;4965781;28;20030;-75
2022/03/04 04:44:43;;;;;;;32.75;14.10;;;-2.60;99.90;;;;;;5000133;28;20030;-75
2022/03/04 04:47:09;;;;;;;29.85;13.75;;;-2.60;99.90;;;;;;4981137;28;20039;-74
2022/03/04 04:49:36;;;;;;;30.60;14.05;;;-2.60;99.90;;;;;;4967590;28;20026;-74
2022/03/04 04:52:05;;;;;;;30.30;15.10;;;-2.50;99.90;;;;;;4984567;28;20030;-74
2022/03/04 04:54:32;;;;;;;34.70;14.93;;;-2.50;99.90;;;;;;4984974;28;20034;-74
2022/03/04 04:56:58;;;;;;;30.40;14.80;;;-2.50;99.90;;;;;;4992790;28;20460;-73
2022/03/04 04:59:23;;;;;;;33.97;14.32;;;-2.50;99.90;;;;;;4978428;28;20018;-74
2022/03/04 05:01:49;;;;;;;29.45;14.60;;;-2.50;99.90;;;;;;4971082;28;20032;-74
2022/03/04 05:04:15;;;;;;;29.63;14.25;;;-2.50;99.90;;;;;;4975123;28;20126;-74
2022/03/04 05:06:41;;;;;;;31.48;14.40;;;-2.50;99.90;;;;;;4974994;28;20554;-74
2022/03/04 05:09:06;;;;;;;33.75;15.02;;;-2.50;99.90;;;;;;4983057;28;20047;-74
2022/03/04 05:11:32;;;;;;;30.35;14.68;;;-2.50;99.90;;;;;;4987261;28;20076;-73
2022/03/04 05:13:58;;;;;;;28.17;14.32;;;-2.50;99.90;;;;;;4992230;28;20080;-74
2022/03/04 05:16:24;;;;;;;32.85;15.77;;;-2.50;99.90;;;;;;4988634;28;20027;-74
2022/03/04 05:18:49;;;;;;;29.95;14.18;;;-2.50;99.90;;;;;;4985973;28;20500;-73
2022/03/04 05:21:15;;;;;;;34.33;15.02;;;-2.60;99.90;;;;;;4989733;28;20022;-74
2022/03/04 05:23:59;;;;;;;31.13;14.18;;;-2.60;99.90;;;;;;4981744;28;20031;-74
2022/03/04 05:26:35;;;;;;;35.72;14.88;;;-2.60;99.90;;;;;;4970155;28;20042;-75
2022/03/04 05:29:04;;;;;;;34.75;16.40;;;-2.60;99.90;;;;;;4985569;28;20107;-74
2022/03/04 05:31:30;;;;;;;36.20;16.02;;;-2.60;99.90;;;;;;4979575;28;20053;-74
2022/03/04 05:33:56;;;;;;;34.60;15.35;;;-2.70;99.90;;;;;;4996472;28;20030;-74
2022/03/04 05:36:23;;;;;;;33.60;15.88;;;-2.70;99.90;;;;;;4967060;28;20033;-74
2022/03/04 05:38:49;;;;;;;35.22;17.38;;;-2.70;99.90;;;;;;4985562;28;20022;-71
2022/03/04 05:41:16;;;;;;;33.42;15.57;;;-2.70;99.90;;;;;;4980734;28;20015;-71
2022/03/04 05:43:43;;;;;;;31.05;15.43;;;-2.70;99.90;;;;;;4975434;28;20380;-71
2022/03/04 05:46:09;;;;;;;37.10;17.17;;;-2.70;99.90;;;;;;4973884;28;20492;-72
2022/03/04 05:48:34;;;;;;;30.80;14.82;;;-2.70;99.90;;;;;;4999895;28;20080;-72
2022/03/04 05:51:01;;;;;;;35.72;15.93;;;-2.80;99.90;;;;;;4999252;28;20045;-71
2022/03/04 05:53:27;;;;;;;32.17;15.18;;;-2.90;99.90;;;;;;4991332;28;20085;-71
2022/03/04 05:55:53;;;;;;;31.85;15.35;;;-2.90;99.90;;;;;;4984913;28;20442;-73
2022/03/04 05:58:18;;;;;;;26.80;14.15;;;-2.90;99.90;;;;;;5013204;28;20029;-72
2022/03/04 06:00:44;;;;;;;36.60;16.45;;;-2.90;99.90;;;;;;4995987;28;20054;-72
2022/03/04 06:03:10;;;;;;;37.58;18.02;;;-2.80;99.90;;;;;;5013652;28;20498;-72
2022/03/04 06:05:35;;;;;;;34.58;16.40;;;-2.80;99.90;;;;;;4980489;28;20111;-72
2022/03/04 06:08:01;;;;;;;32.65;15.23;;;-2.70;99.90;;;;;;4994076;28;20302;-72
2022/03/04 06:10:28;;;;;;;35.50;15.50;;;-2.70;99.90;;;;;;4993775;28;20029;-71
2022/03/04 06:12:53;;;;;;;33.78;16.10;;;-2.70;99.90;;;;;;4979323;28;20391;-71
2022/03/04 06:15:19;;;;;;;27.58;13.13;;;-2.80;99.90;;;;;;4988326;28;20027;-72
2022/03/04 06:17:50;;;;;;;32.60;13.73;;;-2.80;99.90;;;;;;4977356;28;20113;-73
2022/03/04 06:20:17;;;;;;;31.42;14.95;;;-2.80;99.90;;;;;;4993799;28;20044;-73
2022/03/04 06:22:44;;;;;;;33.72;14.80;;;-2.90;99.90;;;;;;4976397;28;20030;-73
2022/03/04 06:25:10;;;;;;;32.92;15.52;;;-2.90;99.90;;;;;;4993216;28;20455;-72
2022/03/04 06:27:37;;;;;;;35.13;16.10;;;-2.90;99.90;;;;;;4994015;28;20022;-72
2022/03/04 06:30:04;;;;;;;34.42;16.13;;;-2.90;99.90;;;;;;4986221;28;20408;-73
2022/03/04 06:32:31;;;;;;;32.83;16.48;;;-2.90;99.90;;;;;;4988679;28;20038;-74
2022/03/04 06:34:58;;;;;;;34.83;16.33;;;-2.90;99.90;;;;;;4978218;28;20030;-71
2022/03/04 06:37:24;;;;;;;30.65;14.13;;;-2.90;99.90;;;;;;4985185;28;20030;-72
2022/03/04 06:39:49;;;;;;;33.85;15.40;;;-2.90;99.90;;;;;;4964873;28;20066;-74
2022/03/04 06:42:15;;;;;;;33.78;16.27;;;-2.80;99.90;;;;;;4997391;28;20045;-74
2022/03/04 06:44:41;;;;;;;32.90;16.58;;;-2.70;99.90;;;;;;4988113;28;20072;-74
2022/03/04 06:47:07;;;;;;;31.77;15.70;;;-2.70;99.90;;;;;;4980852;28;20027;-73
2022/03/04 06:49:33;;;;;;;29.13;14.55;;;-2.60;99.90;;;;;;4981599;28;20372;-72
2022/03/04 06:51:59;;;;;;;34.00;15.52;;;-2.50;99.90;;;;;;4982453;28;20068;-74
2022/03/04 06:54:24;;;;;;;30.30;15.00;;;-2.40;99.90;;;;;;4971879;28;20061;-76
2022/03/04 06:56:50;;;;;;;33.75;16.20;;;-2.30;99.90;;;;;;4985859;28;20034;-74
2022/03/04 06:59:16;;;;;;;34.78;16.52;;;-2.20;99.90;;;;;;4987142;28;20033;-73
2022/03/04 07:01:42;;;;;;;33.67;14.98;;;-2.10;99.90;;;;;;4981970;28;20203;-73
2022/03/04 07:04:08;;;;;;;32.15;15.45;;;-2.00;99.90;;;;;;4982075;28;20035;-73
2022/03/04 07:06:34;;;;;;;34.63;17.42;;;-1.90;99.90;;;;;;4985339;28;20035;-73
2022/03/04 07:08:59;;;;;;;33.72;15.98;;;-1.80;99.90;;;;;;4988545;28;20105;-73
2022/03/04 07:11:25;;;;;;;35.53;16.02;;;-1.70;99.90;;;;;;4981016;28;20167;-73
2022/03/04 07:13:51;;;;;;;41.45;16.50;;;-1.60;99.90;;;;;;4985105;28;20511;-74
2022/03/04 07:16:16;;;;;;;34.42;17.35;;;-1.50;99.90;;;;;;4990831;28;20037;-74
2022/03/04 07:18:42;;;;;;;38.83;17.05;;;-1.50;99.90;;;;;;4993472;28;20034;-74
2022/03/04 07:21:08;;;;;;;37.63;17.48;;;-1.40;99.90;;;;;;4986872;28;20038;-73
2022/03/04 07:23:34;;;;;;;39.95;18.20;;;-1.30;99.90;;;;;;4982161;28;20026;-72
2022/03/04 07:25:59;;;;;;;37.17;17.42;;;-1.30;99.90;;;;;;4978352;28;20090;-71
2022/03/04 07:28:25;;;;;;;32.47;17.40;;;-1.20;99.90;;;;;;4968601;28;20049;-70
2022/03/04 07:30:51;;;;;;;40.55;17.38;;;-1.10;99.90;;;;;;5002309;28;20552;-70
2022/03/04 07:33:17;;;;;;;37.97;18.48;;;-1.00;99.90;;;;;;5007013;28;20026;-71
2022/03/04 07:35:45;;;;;;;35.15;17.55;;;-1.00;99.90;;;;;;5006093;28;20439;-71
2022/03/04 07:38:12;;;;;;;34.63;17.30;;;-1.00;99.90;;;;;;5006235;28;20030;-71
2022/03/04 07:40:38;;;;;;;35.75;18.00;;;-0.90;99.90;;;;;;5006026;28;20024;-71
2022/03/04 07:43:04;;;;;;;37.30;18.23;;;-0.90;99.90;;;;;;5000439;28;20105;-70
2022/03/04 07:45:29;;;;;;;36.45;17.67;;;-0.80;99.90;;;;;;5007909;28;20489;-71
2022/03/04 07:47:55;;;;;;;34.58;16.75;;;-0.70;99.90;;;;;;5005226;28;20027;-71
2022/03/04 07:50:21;;;;;;;35.67;17.48;;;-0.60;99.90;;;;;;5007118;28;20060;-71
2022/03/04 07:52:46;;;;;;;30.98;16.30;;;-0.60;99.90;;;;;;5008224;28;20025;-70
2022/03/04 07:55:14;;;;;;;39.72;17.15;;;-0.50;99.90;;;;;;5004051;28;20030;-70
2022/03/04 07:57:40;;;;;;;30.27;15.65;;;-0.40;99.90;;;;;;4989280;28;20099;-71
2022/03/04 08:00:10;;;;;;;33.22;16.15;;;-0.40;99.90;;;;;;5010843;28;20027;-71
2022/03/04 08:02:36;;;;;;;32.25;16.15;;;-0.30;99.90;;;;;;5002863;28;20026;-71
2022/03/04 08:05:02;;;;;;;32.58;16.58;;;-0.30;99.90;;;;;;5008093;28;20115;-70
2022/03/04 08:07:28;;;;;;;33.70;16.50;;;-0.20;99.90;;;;;;5007908;28;20026;-71
2022/03/04 08:09:54;;;;;;;34.60;17.75;;;-0.10;99.90;;;;;;4989459;28;20163;-72
2022/03/04 08:12:20;;;;;;;38.38;18.45;;;0.00;99.90;;;;;;5004338;28;20057;-70
2022/03/04 08:14:46;;;;;;;34.13;17.10;;;0.00;99.90;;;;;;5005303;28;20030;-71
2022/03/04 08:17:12;;;;;;;36.88;17.88;;;0.00;99.90;;;;;;4994067;28;20033;-71
2022/03/04 08:19:39;;;;;;;32.80;17.08;;;0.10;99.90;;;;;;5008724;28;21449;-71
2022/03/04 08:22:05;;;;;;;36.20;17.02;;;0.20;99.90;;;;;;5007499;28;20029;-71
2022/03/04 08:24:31;;;;;;;32.92;16.65;;;0.20;99.90;;;;;;5005997;28;20117;-71
2022/03/04 08:26:57;;;;;;;38.75;18.30;;;0.20;99.90;;;;;;5008291;28;20022;-71
2022/03/04 08:29:23;;;;;;;35.65;18.15;;;0.30;99.90;;;;;;5004066;28;20104;-71
2022/03/04 08:31:49;;;;;;;36.25;18.63;;;0.30;99.90;;;;;;5002799;28;20029;-71
2022/03/04 08:34:15;;;;;;;34.28;17.08;;;0.30;99.90;;;;;;5000303;28;20125;-71
2022/03/04 08:36:41;;;;;;;35.60;16.27;;;0.30;99.90;;;;;;5004509;28;20030;-71
2022/03/04 08:39:07;;;;;;;34.90;15.25;;;0.30;99.90;;;;;;5006374;28;20022;-72
2022/03/04 08:41:35;;;;;;;33.30;15.80;;;0.40;99.90;;;;;;5004952;28;20105;-71
2022/03/04 08:44:02;;;;;;;30.08;16.08;;;0.40;99.90;;;;;;5003379;28;20096;-72
2022/03/04 08:46:28;;;;;;;36.17;16.27;;;0.50;99.90;;;;;;5004416;28;20053;-71
2022/03/04 08:48:54;;;;;;;33.05;17.95;;;0.60;99.90;;;;;;5000576;28;20376;-71
2022/03/04 08:51:25;;;;;;;35.70;16.38;;;0.70;99.90;;;;;;4987032;28;20022;-71
2022/03/04 08:53:52;;;;;;;38.08;16.02;;;0.70;99.90;;;;;;5007005;28;20026;-71
2022/03/04 08:56:18;;;;;;;33.35;16.92;;;0.80;99.90;;;;;;5004457;28;20038;-71
2022/03/04 08:58:43;;;;;;;34.85;15.90;;;0.90;99.90;;;;;;5005500;28;20026;-71
2022/03/04 09:01:09;;;;;;;33.92;17.52;;;1.00;99.90;;;;;;4991215;28;20084;-71
2022/03/04 09:03:35;;;;;;;41.40;17.33;;;1.00;99.90;;;;;;4999617;28;20029;-71
2022/03/04 09:06:00;;;;;;;36.15;17.40;;;1.20;99.90;;;;;;5004152;28;20034;-70
2022/03/04 09:08:26;;;;;;;33.63;17.38;;;1.30;99.90;;;;;;4993190;28;20397;-71
2022/03/04 09:10:52;;;;;;;35.92;17.27;;;1.40;99.90;;;;;;5004404;28;20030;-72
2022/03/04 09:13:17;;;;;;;36.08;16.83;;;1.50;99.90;;;;;;4990874;28;20038;-71
2022/03/04 09:15:43;;;;;;;36.92;17.48;;;1.70;99.90;;;;;;5004458;28;20077;-72
2022/03/04 09:18:09;;;;;;;35.20;16.92;;;1.80;99.70;;;;;;4986127;28;20510;-71
2022/03/04 09:20:34;;;;;;;36.80;17.60;;;1.80;99.60;;;;;;5003160;28;20034;-71
2022/03/04 09:23:00;;;;;;;41.47;18.13;;;2.00;99.70;;;;;;5011767;28;20029;-71
2022/03/04 09:25:29;;;;;;;35.45;17.08;;;2.00;99.60;;;;;;5014570;28;20495;-71
2022/03/04 09:27:54;;;;;;;41.83;19.38;;;2.10;99.10;;;;;;5011355;28;20053;-72
2022/03/04 09:30:21;;;;;;;33.28;17.52;;;2.10;98.20;;;;;;5018414;28;20026;-70
2022/03/04 09:32:46;;;;;;;34.60;17.50;;;2.10;97.90;;;;;;5014368;28;20033;-69
2022/03/04 09:35:12;;;;;;;29.45;15.43;;;2.30;97.70;;;;;;5010707;28;20021;-70
2022/03/04 09:37:38;;;;;;;31.95;17.02;;;2.40;97.50;;;;;;5010954;28;20022;-71
2022/03/04 09:40:05;;;;;;;33.05;16.90;;;2.40;96.70;;;;;;5024838;28;20048;-70
2022/03/04 09:42:33;;;;;;;30.20;15.25;;;2.50;97.30;;;;;;5006929;28;20030;-70
2022/03/04 09:44:59;;;;;;;38.17;16.77;;;2.60;96.80;;;;;;5013862;28;20104;-69
2022/03/04 09:47:25;;;;;;;37.35;15.07;;;2.70;95.70;;;;;;5012752;28;20028;-68
2022/03/04 09:49:52;;;;;;;30.38;15.77;;;2.70;94.50;;;;;;5013209;28;20026;-70
2022/03/04 09:52:19;;;;;;;33.70;15.88;;;2.80;93.40;;;;;;5013905;28;20032;-70
2022/03/04 09:54:51;;;;;;;41.42;17.67;;;2.90;94.00;;;;;;5008847;28;20031;-69
2022/03/04 09:57:18;;;;;;;31.65;16.40;;;2.90;93.50;;;;;;5008588;28;20101;-68
2022/03/04 09:59:44;;;;;;;36.13;16.70;;;3.00;93.40;;;;;;5009230;28;20041;-69
2022/03/04 10:02:12;;;;;;;35.58;17.42;;;3.00;93.10;;;;;;5007831;28;20026;-70
2022/03/04 10:04:38;;;;;;;37.42;17.83;;;3.10;93.70;;;;;;5013284;28;20014;-69
2022/03/04 10:07:16;;;;;;;36.65;17.20;;;3.10;94.30;;;;;;5011109;28;20497;-69
2022/03/04 10:09:43;;;;;;;32.17;16.27;;;3.20;95.10;;;;;;5007985;28;20030;-69
2022/03/04 10:12:11;;;;;;;34.95;17.77;;;3.30;95.20;;;;;;5011721;28;20113;-68
2022/03/04 10:14:56;;;;;;;39.28;17.42;;;3.40;95.00;;;;;;5012470;28;20048;-72
2022/03/04 10:17:22;;;;;;;34.42;17.23;;;3.40;95.00;;;;;;5013199;28;20034;-70
2022/03/04 10:19:52;;;;;;;33.80;17.27;;;3.50;94.80;;;;;;5013086;28;20393;-71
2022/03/04 10:22:18;;;;;;;33.88;17.17;;;3.60;94.30;;;;;;4993616;28;20018;-72
2022/03/04 10:24:43;;;;;;;31.33;15.77;;;3.70;94.00;;;;;;4993881;28;20080;-70
2022/03/04 10:27:14;;;;;;;33.05;16.58;;;3.80;92.80;;;;;;4993884;28;20088;-71
2022/03/04 10:29:43;;;;;;;34.17;16.83;;;3.80;93.00;;;;;;4993891;28;20037;-71
2022/03/04 10:32:10;;;;;;;30.15;16.40;;;4.00;92.80;;;;;;4994323;28;20475;-71
2022/03/04 10:34:57;;;;;;;30.45;16.90;;;4.00;91.60;;;;;;4994394;28;20514;-72
2022/03/04 10:37:41;;;;;;;34.50;15.88;;;4.10;91.20;;;;;;4994053;28;20101;-73
2022/03/04 10:40:07;;;;;;;34.35;15.73;;;4.10;90.10;;;;;;4994273;28;20471;-72
2022/03/04 10:42:51;;;;;;;29.10;14.63;;;4.10;88.20;;;;;;4993847;28;20026;-72
2022/03/04 10:45:27;;;;;;;29.80;14.93;;;4.30;86.30;;;;;;4988534;28;20037;-74
2022/03/04 10:48:05;;;;;;;27.42;14.65;;;4.30;84.40;;;;;;5008640;28;20023;-73
2022/03/04 10:50:33;;;;;;;28.60;15.40;;;4.30;82.80;;;;;;4993499;28;20369;-73
2022/03/04 10:53:08;;;;;;;28.88;14.85;;;4.40;82.10;;;;;;4997974;28;20434;-74
2022/03/04 10:55:37;;;;;;;32.10;15.68;;;4.40;80.20;;;;;;5011870;28;20037;-72
2022/03/04 10:58:05;;;;;;;28.38;14.80;;;4.40;80.20;;;;;;5012989;28;20037;-70
2022/03/04 11:00:36;;;;;;;28.42;14.02;;;4.50;80.30;;;;;;5013127;28;20013;-71
2022/03/04 11:03:04;;;;;;;34.08;15.57;;;4.60;78.40;;;;;;5013021;28;20033;-71
2022/03/04 11:05:30;;;;;;;32.33;16.15;;;4.70;77.00;;;;;;5012936;28;20050;-71
2022/03/04 11:07:56;;;;;;;31.10;15.70;;;4.70;77.60;;;;;;5028036;28;20498;-71
2022/03/04 11:10:22;;;;;;;30.20;15.90;;;4.80;76.40;;;;;;5013409;28;20383;-72
2022/03/04 11:12:53;;;;;;;34.45;15.98;;;4.80;76.10;;;;;;5012782;28;20439;-71
2022/03/04 11:15:21;;;;;;;31.33;16.05;;;4.80;75.20;;;;;;5012888;28;20105;-72
2022/03/04 11:17:48;;;;;;;29.98;15.80;;;4.90;74.70;;;;;;5013006;28;20097;-72
2022/03/04 11:20:14;;;;;;;29.40;15.55;;;5.00;74.50;;;;;;5012847;28;20508;-72
2022/03/04 11:22:43;;;;;;;28.25;14.70;;;5.00;74.20;;;;;;5012883;28;20088;-72
2022/03/04 11:25:12;;;;;;;31.27;15.93;;;5.10;73.60;;;;;;5012711;28;20038;-72
2022/03/04 11:27:42;;;;;;;31.25;16.30;;;5.10;73.90;;;;;;5011096;28;20022;-70
2022/03/04 11:30:26;;;;;;;31.25;15.07;;;5.20;73.50;;;;;;5012408;28;20058;-72
2022/03/04 11:33:07;;;;;;;;;;;5.30;72.80;;;;;;5012916;28;20041;-72
2022/03/04 11:35:59;;;;;;;30.33;14.70;;;5.40;71.70;;;;;;5012114;28;19940;-71
2022/03/04 11:38:43;;;;;;;30.45;14.05;;;5.40;72.10;;;;;;5001902;28;20441;-71
2022/03/04 11:41:19;;;;;;;31.98;15.40;;;5.60;72.00;;;;;;4994940;28;20022;-72
2022/03/04 11:43:52;;;;;;;38.15;16.63;;;5.50;71.90;;;;;;5012392;28;20622;-71
2022/03/04 11:46:45;;;;;;;34.60;15.07;;;5.60;70.60;;;;;;5012443;28;20026;-71
2022/03/04 11:49:46;;;;;;;27.23;13.75;;;5.80;68.20;;;;;;5007902;28;20034;-72
2022/03/04 11:52:20;;;;;;;30.05;14.15;;;5.70;66.20;;;;;;5012552;28;20108;-71
2022/03/04 11:54:49;;;;;;;30.30;14.90;;;5.80;65.50;;;;;;4994653;28;20022;-71
2022/03/04 11:57:41;;;;;;;26.98;14.07;;;5.80;63.80;;;;;;5012136;28;20045;-71
2022/03/04 12:00:10;;;;;;;37.72;15.95;;;5.80;64.30;;;;;;4991557;28;20033;-71
2022/03/04 12:02:42;;;;;;;30.67;14.95;;;5.90;65.60;;;;;;4999134;28;20034;-70
2022/03/04 12:05:21;;;;;;;27.85;13.63;;;6.00;65.90;;;;;;5004509;28;20105;-70
2022/03/04 12:07:56;;;;;;;35.00;14.57;;;6.00;63.50;;;;;;5007083;28;20037;-71
2022/03/04 12:10:38;;;;;;;29.55;14.82;;;6.10;62.00;;;;;;4997035;28;20045;-71
2022/03/04 12:13:21;;;;;;;30.90;14.55;;;6.10;62.70;;;;;;5007054;28;20046;-71
2022/03/04 12:16:07;;;;;;;28.40;14.00;;;6.20;63.60;;;;;;5010912;28;20109;-72
2022/03/04 12:18:42;;;;;;;30.67;13.90;;;6.30;62.20;;;;;;5005649;28;20037;-71
2022/03/04 12:21:10;;;;;;;24.08;13.25;;;6.30;61.20;;;;;;4992657;28;20028;-71
2022/03/04 12:23:42;;;;;;;29.00;14.02;;;6.40;61.60;;;;;;5015576;28;20058;-72
2022/03/04 12:26:26;;;;;;;29.15;14.38;;;6.40;61.60;;;;;;5016252;28;20089;-73
2022/03/04 12:29:01;;;;;;;26.55;13.55;;;6.40;61.30;;;;;;5005314;28;20029;-73
2022/03/04 12:31:30;;;;;;;25.00;13.07;;;6.40;60.00;;;;;;4996961;28;20080;-70
2022/03/04 12:33:57;;;;;;;27.00;13.27;;;6.40;60.60;;;;;;4978584;28;20026;-70